sensor_id;sensor_type;location;lat;lon;timestamp;temperature;humidity
39019;DHT22;24786;51.984;5.872;2023-01-29T00:00:00;2.40;99.90
39019;DHT22;24786;51.984;5.872;2023-01-29T00:02:26;2.40;99.90
39019;DHT22;24786;51.984;5.872;2023-01-29T00:04:51;2.30;99.90
39019;DHT22;24786;51.984;5.872;2023-01-29T00:07:17;2.30;99.90
39019;DHT22;24786;51.984;5.872;2023-01-29T00:09:44;2.30;99.90
39019;DHT22;24786;51.984;5.872;2023-01-29T00:12:10;2.30;99.90
39019;DHT22;24786;51.984;5.872;2023-01-29T00:14:35;2.30;99.90
39019;DHT22;24786;51.984;5.872;2023-01-29T00:17:01;2.30;99.90
39019;DHT22;24786;51.984;5.872;2023-01-29T00:19:27;2.30;99.90
39019;DHT22;24786;51.984;5.872;2023-01-29T00:21:52;2.30;99.90
39019;DHT22;24786;51.984;5.872;2023-01-29T00:24:18;2.30;99.90
39019;DHT22;24786;51.984;5.872;2023-01-29T00:26:43;2.30;99.90
39019;DHT22;24786;51.984;5.872;2023-01-29T00:29:09;2.30;99.90
39019;DHT22;24786;51.984;5.872;2023-01-29T00:31:35;2.30;99.90
39019;DHT22;24786;51.984;5.872;2023-01-29T00:34:00;2.30;99.90
39019;DHT22;24786;51.984;5.872;2023-01-29T00:36:26;2.30;99.90
39019;DHT22;24786;51.984;5.872;2023-01-29T00:38:56;2.30;99.90
39019;DHT22;24786;51.984;5.872;2023-01-29T00:41:30;2.30;99.90
39019;DHT22;24786;51.984;5.872;2023-01-29T00:44:14;2.30;99.90
39019;DHT22;24786;51.984;5.872;2023-01-29T00:46:58;2.20;99.90
39019;DHT22;24786;51.984;5.872;2023-01-29T00:49:24;2.20;99.90
39019;DHT22;24786;51.984;5.872;2023-01-29T00:51:50;2.20;99.90
39019;DHT22;24786;51.984;5.872;2023-01-29T00:54:35;2.20;99.90
39019;DHT22;24786;51.984;5.872;2023-01-29T00:57:02;2.20;99.90
39019;DHT22;24786;51.984;5.872;2023-01-29T00:59:27;2.20;99.90
39019;DHT22;24786;51.984;5.872;2023-01-29T01:01:53;2.20;99.90
39019;DHT22;24786;51.984;5.872;2023-01-29T01:04:38;2.20;99.90
39019;DHT22;24786;51.984;5.872;2023-01-29T01:07:03;2.20;99.90
39019;DHT22;24786;51.984;5.872;2023-01-29T01:09:29;2.20;99.90
39019;DHT22;24786;51.984;5.872;2023-01-29T01:12:13;2.10;99.90
39019;DHT22;24786;51.984;5.872;2023-01-29T01:14:38;2.10;99.90
39019;DHT22;24786;51.984;5.872;2023-01-29T01:17:07;2.10;99.90
39019;DHT22;24786;51.984;5.872;2023-01-29T01:19:33;2.10;99.90
39019;DHT22;24786;51.984;5.872;2023-01-29T01:21:58;2.10;99.90
39019;DHT22;24786;51.984;5.872;2023-01-29T01:24:24;2.10;99.90
39019;DHT22;24786;51.984;5.872;2023-01-29T01:26:49;2.10;99.90
39019;DHT22;24786;51.984;5.872;2023-01-29T01:29:15;2.10;99.90
39019;DHT22;24786;51.984;5.872;2023-01-29T01:31:41;2.10;99.90
39019;DHT22;24786;51.984;5.872;2023-01-29T01:34:06;2.10;99.90
39019;DHT22;24786;51.984;5.872;2023-01-29T01:36:32;2.10;99.90
39019;DHT22;24786;51.984;5.872;2023-01-29T01:38:57;2.10;99.90
39019;DHT22;24786;51.984;5.872;2023-01-29T01:41:23;2.10;99.90
39019;DHT22;24786;51.984;5.872;2023-01-29T01:43:57;2.20;99.90
39019;DHT22;24786;51.984;5.872;2023-01-29T01:46:26;2.10;99.90
39019;DHT22;24786;51.984;5.872;2023-01-29T01:49:04;2.20;99.90
39019;DHT22;24786;51.984;5.872;2023-01-29T01:51:35;2.10;99.90
39019;DHT22;24786;51.984;5.872;2023-01-29T01:54:07;2.10;99.90
39019;DHT22;24786;51.984;5.872;2023-01-29T01:56:37;2.10;99.90
39019;DHT22;24786;51.984;5.872;2023-01-29T01:59:16;2.10;99.90
39019;DHT22;24786;51.984;5.872;2023-01-29T02:01:46;2.10;99.90
39019;DHT22;24786;51.984;5.872;2023-01-29T02:04:19;2.00;99.90
39019;DHT22;24786;51.984;5.872;2023-01-29T02:07:06;2.00;99.90
39019;DHT22;24786;51.984;5.872;2023-01-29T02:09:53;2.00;99.90
39019;DHT22;24786;51.984;5.872;2023-01-29T02:12:20;2.00;99.90
39019;DHT22;24786;51.984;5.872;2023-01-29T02:14:47;1.90;99.90
39019;DHT22;24786;51.984;5.872;2023-01-29T02:17:17;2.00;99.90
39019;DHT22;24786;51.984;5.872;2023-01-29T02:30:28;2.00;99.90
39019;DHT22;24786;51.984;5.872;2023-01-29T02:32:56;2.00;99.90
39019;DHT22;24786;51.984;5.872;2023-01-29T02:41:09;2.00;99.90
39019;DHT22;24786;51.984;5.872;2023-01-29T02:44:26;2.00;99.90
39019;DHT22;24786;51.984;5.872;2023-01-29T02:47:02;2.00;99.90
39019;DHT22;24786;51.984;5.872;2023-01-29T02:49:47;2.00;99.90
39019;DHT22;24786;51.984;5.872;2023-01-29T02:52:18;2.00;99.90
39019;DHT22;24786;51.984;5.872;2023-01-29T02:54:57;2.00;99.90
39019;DHT22;24786;51.984;5.872;2023-01-29T02:57:33;2.00;99.90
39019;DHT22;24786;51.984;5.872;2023-01-29T03:02:43;2.00;99.90
39019;DHT22;24786;51.984;5.872;2023-01-29T03:05:15;2.00;99.90
39019;DHT22;24786;51.984;5.872;2023-01-29T03:07:48;1.90;99.90
39019;DHT22;24786;51.984;5.872;2023-01-29T03:10:26;1.90;99.90
39019;DHT22;24786;51.984;5.872;2023-01-29T03:13:03;1.90;99.90
39019;DHT22;24786;51.984;5.872;2023-01-29T03:15:37;1.90;99.90
39019;DHT22;24786;51.984;5.872;2023-01-29T03:18:13;1.90;99.90
39019;DHT22;24786;51.984;5.872;2023-01-29T03:20:48;1.90;99.90
39019;DHT22;24786;51.984;5.872;2023-01-29T03:23:20;1.90;99.90
39019;DHT22;24786;51.984;5.872;2023-01-29T03:25:50;1.90;99.90
39019;DHT22;24786;51.984;5.872;2023-01-29T03:28:37;1.90;99.90
39019;DHT22;24786;51.984;5.872;2023-01-29T03:31:24;1.90;99.90
39019;DHT22;24786;51.984;5.872;2023-01-29T03:34:13;1.90;99.90
39019;DHT22;24786;51.984;5.872;2023-01-29T03:39:14;1.90;99.90
39019;DHT22;24786;51.984;5.872;2023-01-29T03:44:59;2.00;99.90
39019;DHT22;24786;51.984;5.872;2023-01-29T03:53:20;2.00;99.90
39019;DHT22;24786;51.984;5.872;2023-01-29T03:55:56;1.90;99.90
39019;DHT22;24786;51.984;5.872;2023-01-29T04:01:20;1.90;99.90
39019;DHT22;24786;51.984;5.872;2023-01-29T04:04:04;1.90;99.90
39019;DHT22;24786;51.984;5.872;2023-01-29T04:06:36;1.90;99.90
39019;DHT22;24786;51.984;5.872;2023-01-29T04:09:11;1.90;99.90
39019;DHT22;24786;51.984;5.872;2023-01-29T04:11:43;1.90;99.90
39019;DHT22;24786;51.984;5.872;2023-01-29T04:14:11;1.90;99.90
39019;DHT22;24786;51.984;5.872;2023-01-29T04:16:41;2.00;99.90
39019;DHT22;24786;51.984;5.872;2023-01-29T04:19:09;1.90;99.90
39019;DHT22;24786;51.984;5.872;2023-01-29T04:21:35;1.90;99.90
39019;DHT22;24786;51.984;5.872;2023-01-29T04:24:02;1.90;99.90
39019;DHT22;24786;51.984;5.872;2023-01-29T04:37:49;2.00;99.90
39019;DHT22;24786;51.984;5.872;2023-01-29T04:43:08;2.00;99.90
39019;DHT22;24786;51.984;5.872;2023-01-29T04:51:12;2.00;99.90
39019;DHT22;24786;51.984;5.872;2023-01-29T04:53:48;2.00;99.90
39019;DHT22;24786;51.984;5.872;2023-01-29T04:56:42;2.00;99.90
39019;DHT22;24786;51.984;5.872;2023-01-29T04:59:17;2.00;99.90
39019;DHT22;24786;51.984;5.872;2023-01-29T05:01:45;2.00;99.90
39019;DHT22;24786;51.984;5.872;2023-01-29T05:04:14;2.00;99.90
39019;DHT22;24786;51.984;5.872;2023-01-29T05:06:41;2.00;99.90
39019;DHT22;24786;51.984;5.872;2023-01-29T05:09:08;2.00;99.90
39019;DHT22;24786;51.984;5.872;2023-01-29T05:11:36;2.00;99.90
39019;DHT22;24786;51.984;5.872;2023-01-29T05:14:03;2.00;99.90
39019;DHT22;24786;51.984;5.872;2023-01-29T05:16:39;2.00;99.90
39019;DHT22;24786;51.984;5.872;2023-01-29T05:19:11;2.00;99.90
39019;DHT22;24786;51.984;5.872;2023-01-29T05:21:37;2.00;99.90
39019;DHT22;24786;51.984;5.872;2023-01-29T05:24:16;2.00;99.90
39019;DHT22;24786;51.984;5.872;2023-01-29T05:26:43;2.00;99.90
39019;DHT22;24786;51.984;5.872;2023-01-29T05:29:29;2.00;99.90
39019;DHT22;24786;51.984;5.872;2023-01-29T05:31:55;2.00;99.90
39019;DHT22;24786;51.984;5.872;2023-01-29T05:34:20;2.00;99.90
39019;DHT22;24786;51.984;5.872;2023-01-29T05:36:46;2.10;99.90
39019;DHT22;24786;51.984;5.872;2023-01-29T05:39:12;2.00;99.90
39019;DHT22;24786;51.984;5.872;2023-01-29T05:41:37;2.10;99.90
39019;DHT22;24786;51.984;5.872;2023-01-29T05:44:03;2.10;99.90
39019;DHT22;24786;51.984;5.872;2023-01-29T05:46:29;2.10;99.90
39019;DHT22;24786;51.984;5.872;2023-01-29T05:48:55;2.10;99.90
39019;DHT22;24786;51.984;5.872;2023-01-29T05:51:20;2.10;99.90
39019;DHT22;24786;51.984;5.872;2023-01-29T05:53:46;2.10;99.90
39019;DHT22;24786;51.984;5.872;2023-01-29T05:56:11;2.10;99.90
39019;DHT22;24786;51.984;5.872;2023-01-29T05:58:37;2.10;99.90
39019;DHT22;24786;51.984;5.872;2023-01-29T06:01:11;2.10;99.90
39019;DHT22;24786;51.984;5.872;2023-01-29T06:03:37;2.10;99.90
39019;DHT22;24786;51.984;5.872;2023-01-29T06:06:02;2.10;99.90
39019;DHT22;24786;51.984;5.872;2023-01-29T06:08:28;2.10;99.90
39019;DHT22;24786;51.984;5.872;2023-01-29T06:10:54;2.10;99.90
39019;DHT22;24786;51.984;5.872;2023-01-29T06:13:19;2.10;99.90
39019;DHT22;24786;51.984;5.872;2023-01-29T06:15:45;2.10;99.90
39019;DHT22;24786;51.984;5.872;2023-01-29T06:18:10;2.10;99.90
39019;DHT22;24786;51.984;5.872;2023-01-29T06:20:36;2.10;99.90
39019;DHT22;24786;51.984;5.872;2023-01-29T06:23:02;2.10;99.90
39019;DHT22;24786;51.984;5.872;2023-01-29T06:25:27;2.10;99.90
39019;DHT22;24786;51.984;5.872;2023-01-29T06:27:53;2.20;99.90
39019;DHT22;24786;51.984;5.872;2023-01-29T06:30:19;2.20;99.90
39019;DHT22;24786;51.984;5.872;2023-01-29T06:32:44;2.20;99.90
39019;DHT22;24786;51.984;5.872;2023-01-29T06:35:10;2.20;99.90
39019;DHT22;24786;51.984;5.872;2023-01-29T06:37:35;2.20;99.90
39019;DHT22;24786;51.984;5.872;2023-01-29T06:40:02;2.20;99.90
39019;DHT22;24786;51.984;5.872;2023-01-29T06:42:27;2.20;99.90
39019;DHT22;24786;51.984;5.872;2023-01-29T06:44:54;2.20;99.90
39019;DHT22;24786;51.984;5.872;2023-01-29T06:47:20;2.20;99.90
39019;DHT22;24786;51.984;5.872;2023-01-29T06:49:45;2.20;99.90
39019;DHT22;24786;51.984;5.872;2023-01-29T06:52:11;2.30;99.90
39019;DHT22;24786;51.984;5.872;2023-01-29T06:54:37;2.30;99.90
39019;DHT22;24786;51.984;5.872;2023-01-29T06:57:02;2.30;99.90
39019;DHT22;24786;51.984;5.872;2023-01-29T06:59:28;2.30;99.90
39019;DHT22;24786;51.984;5.872;2023-01-29T07:01:53;2.20;99.90
39019;DHT22;24786;51.984;5.872;2023-01-29T07:04:19;2.30;99.90
39019;DHT22;24786;51.984;5.872;2023-01-29T07:06:45;2.30;99.90
39019;DHT22;24786;51.984;5.872;2023-01-29T07:09:12;2.20;99.90
39019;DHT22;24786;51.984;5.872;2023-01-29T07:11:38;2.30;99.90
39019;DHT22;24786;51.984;5.872;2023-01-29T07:14:05;2.30;99.90
39019;DHT22;24786;51.984;5.872;2023-01-29T07:16:31;2.30;99.90
39019;DHT22;24786;51.984;5.872;2023-01-29T07:18:56;2.30;99.90
39019;DHT22;24786;51.984;5.872;2023-01-29T07:21:22;2.30;99.90
39019;DHT22;24786;51.984;5.872;2023-01-29T07:23:48;2.30;99.90
39019;DHT22;24786;51.984;5.872;2023-01-29T07:26:14;2.30;99.90
39019;DHT22;24786;51.984;5.872;2023-01-29T07:28:40;2.30;99.90
39019;DHT22;24786;51.984;5.872;2023-01-29T07:31:06;2.30;99.90
39019;DHT22;24786;51.984;5.872;2023-01-29T07:33:32;2.30;99.90
39019;DHT22;24786;51.984;5.872;2023-01-29T07:35:58;2.30;99.90
39019;DHT22;24786;51.984;5.872;2023-01-29T07:38:23;2.30;99.90
39019;DHT22;24786;51.984;5.872;2023-01-29T07:40:51;2.30;99.90
39019;DHT22;24786;51.984;5.872;2023-01-29T07:43:17;2.40;99.90
39019;DHT22;24786;51.984;5.872;2023-01-29T07:45:42;2.40;99.90
39019;DHT22;24786;51.984;5.872;2023-01-29T07:48:10;2.40;99.90
39019;DHT22;24786;51.984;5.872;2023-01-29T07:50:37;2.40;99.90
39019;DHT22;24786;51.984;5.872;2023-01-29T07:53:03;2.40;99.90
39019;DHT22;24786;51.984;5.872;2023-01-29T07:55:29;2.40;99.90
39019;DHT22;24786;51.984;5.872;2023-01-29T07:57:59;2.40;99.90
39019;DHT22;24786;51.984;5.872;2023-01-29T08:00:25;2.40;99.90
39019;DHT22;24786;51.984;5.872;2023-01-29T08:02:52;2.40;99.90
39019;DHT22;24786;51.984;5.872;2023-01-29T08:05:18;2.40;99.90
39019;DHT22;24786;51.984;5.872;2023-01-29T08:07:43;2.50;99.90
39019;DHT22;24786;51.984;5.872;2023-01-29T08:10:10;2.50;99.90
39019;DHT22;24786;51.984;5.872;2023-01-29T08:12:36;2.50;99.90
39019;DHT22;24786;51.984;5.872;2023-01-29T08:15:01;2.50;99.90
39019;DHT22;24786;51.984;5.872;2023-01-29T08:17:27;2.50;99.90
39019;DHT22;24786;51.984;5.872;2023-01-29T08:19:53;2.50;99.90
39019;DHT22;24786;51.984;5.872;2023-01-29T08:22:18;2.50;99.90
39019;DHT22;24786;51.984;5.872;2023-01-29T08:24:44;2.60;99.90
39019;DHT22;24786;51.984;5.872;2023-01-29T08:27:09;2.50;99.90
39019;DHT22;24786;51.984;5.872;2023-01-29T08:29:35;2.60;99.90
39019;DHT22;24786;51.984;5.872;2023-01-29T08:32:00;2.60;99.90
39019;DHT22;24786;51.984;5.872;2023-01-29T08:34:26;2.60;99.90
39019;DHT22;24786;51.984;5.872;2023-01-29T08:36:52;2.60;99.90
39019;DHT22;24786;51.984;5.872;2023-01-29T08:39:18;2.70;99.90
39019;DHT22;24786;51.984;5.872;2023-01-29T08:41:46;2.70;99.90
39019;DHT22;24786;51.984;5.872;2023-01-29T08:44:11;2.70;99.90
39019;DHT22;24786;51.984;5.872;2023-01-29T08:46:39;2.70;99.90
39019;DHT22;24786;51.984;5.872;2023-01-29T08:49:05;2.70;99.90
39019;DHT22;24786;51.984;5.872;2023-01-29T08:51:32;2.80;99.90
39019;DHT22;24786;51.984;5.872;2023-01-29T08:53:58;2.80;99.90
39019;DHT22;24786;51.984;5.872;2023-01-29T08:56:24;2.90;99.90
39019;DHT22;24786;51.984;5.872;2023-01-29T08:58:49;2.90;99.90
39019;DHT22;24786;51.984;5.872;2023-01-29T09:01:15;2.90;99.90
39019;DHT22;24786;51.984;5.872;2023-01-29T09:03:40;3.00;99.90
39019;DHT22;24786;51.984;5.872;2023-01-29T09:06:09;3.00;99.90
39019;DHT22;24786;51.984;5.872;2023-01-29T09:08:36;3.00;99.90
39019;DHT22;24786;51.984;5.872;2023-01-29T09:11:02;3.10;99.90
39019;DHT22;24786;51.984;5.872;2023-01-29T09:13:28;3.10;99.90
39019;DHT22;24786;51.984;5.872;2023-01-29T09:15:58;3.10;99.90
39019;DHT22;24786;51.984;5.872;2023-01-29T09:18:24;3.20;99.90
39019;DHT22;24786;51.984;5.872;2023-01-29T09:20:50;3.20;99.90
39019;DHT22;24786;51.984;5.872;2023-01-29T09:23:17;3.20;99.90
39019;DHT22;24786;51.984;5.872;2023-01-29T09:25:42;3.20;99.90
39019;DHT22;24786;51.984;5.872;2023-01-29T09:28:08;3.20;99.90
39019;DHT22;24786;51.984;5.872;2023-01-29T09:30:34;3.20;99.90
39019;DHT22;24786;51.984;5.872;2023-01-29T09:33:02;3.20;99.90
39019;DHT22;24786;51.984;5.872;2023-01-29T09:35:28;3.30;99.90
39019;DHT22;24786;51.984;5.872;2023-01-29T09:37:54;3.30;99.90
39019;DHT22;24786;51.984;5.872;2023-01-29T09:40:25;3.30;99.90
39019;DHT22;24786;51.984;5.872;2023-01-29T09:42:56;3.30;99.90
39019;DHT22;24786;51.984;5.872;2023-01-29T09:45:27;3.30;99.90
39019;DHT22;24786;51.984;5.872;2023-01-29T09:48:00;3.30;99.90
39019;DHT22;24786;51.984;5.872;2023-01-29T09:50:39;3.30;99.90
39019;DHT22;24786;51.984;5.872;2023-01-29T09:55:44;3.30;99.90
39019;DHT22;24786;51.984;5.872;2023-01-29T09:58:18;3.30;99.90
39019;DHT22;24786;51.984;5.872;2023-01-29T10:06:51;3.30;99.90
39019;DHT22;24786;51.984;5.872;2023-01-29T10:12:33;3.30;99.90
39019;DHT22;24786;51.984;5.872;2023-01-29T10:21:27;3.30;99.90
39019;DHT22;24786;51.984;5.872;2023-01-29T10:26:40;3.50;99.90
39019;DHT22;24786;51.984;5.872;2023-01-29T10:29:07;3.50;99.90
39019;DHT22;24786;51.984;5.872;2023-01-29T10:31:37;3.50;99.90
39019;DHT22;24786;51.984;5.872;2023-01-29T10:34:10;3.50;99.90
39019;DHT22;24786;51.984;5.872;2023-01-29T10:39:20;3.60;99.90
39019;DHT22;24786;51.984;5.872;2023-01-29T10:52:32;3.60;99.90
39019;DHT22;24786;51.984;5.872;2023-01-29T11:00:35;3.70;99.90
39019;DHT22;24786;51.984;5.872;2023-01-29T11:03:22;3.70;99.90
39019;DHT22;24786;51.984;5.872;2023-01-29T11:06:07;3.60;99.90
39019;DHT22;24786;51.984;5.872;2023-01-29T11:09:11;3.70;99.90
39019;DHT22;24786;51.984;5.872;2023-01-29T11:11:53;3.70;99.90
39019;DHT22;24786;51.984;5.872;2023-01-29T11:14:28;3.70;99.90
39019;DHT22;24786;51.984;5.872;2023-01-29T11:16:56;3.70;99.90
39019;DHT22;24786;51.984;5.872;2023-01-29T11:19:37;3.70;99.90
39019;DHT22;24786;51.984;5.872;2023-01-29T11:22:02;3.80;99.90
39019;DHT22;24786;51.984;5.872;2023-01-29T11:24:28;3.80;99.90
39019;DHT22;24786;51.984;5.872;2023-01-29T11:26:57;3.80;99.90
39019;DHT22;24786;51.984;5.872;2023-01-29T11:29:31;3.80;99.90
39019;DHT22;24786;51.984;5.872;2023-01-29T11:31:59;3.90;99.90
39019;DHT22;24786;51.984;5.872;2023-01-29T11:34:25;3.90;99.90
39019;DHT22;24786;51.984;5.872;2023-01-29T11:39:24;4.00;99.90
39019;DHT22;24786;51.984;5.872;2023-01-29T11:42:13;4.00;99.90
39019;DHT22;24786;51.984;5.872;2023-01-29T11:44:43;4.00;99.90
39019;DHT22;24786;51.984;5.872;2023-01-29T11:47:21;4.00;99.90
39019;DHT22;24786;51.984;5.872;2023-01-29T11:49:55;4.10;99.90
39019;DHT22;24786;51.984;5.872;2023-01-29T11:52:23;4.10;99.90
39019;DHT22;24786;51.984;5.872;2023-01-29T11:55:02;4.10;99.90
39019;DHT22;24786;51.984;5.872;2023-01-29T11:57:31;4.10;99.90
39019;DHT22;24786;51.984;5.872;2023-01-29T12:03:14;4.10;99.90
39019;DHT22;24786;51.984;5.872;2023-01-29T12:05:55;4.10;99.90
39019;DHT22;24786;51.984;5.872;2023-01-29T12:08:22;4.10;99.90
39019;DHT22;24786;51.984;5.872;2023-01-29T12:10:49;4.10;99.90
39019;DHT22;24786;51.984;5.872;2023-01-29T12:13:26;4.10;99.90
39019;DHT22;24786;51.984;5.872;2023-01-29T12:18:38;4.10;99.90
39019;DHT22;24786;51.984;5.872;2023-01-29T12:21:21;4.10;99.90
39019;DHT22;24786;51.984;5.872;2023-01-29T12:24:00;4.10;99.90
39019;DHT22;24786;51.984;5.872;2023-01-29T12:26:45;4.10;99.90
39019;DHT22;24786;51.984;5.872;2023-01-29T12:29:22;4.10;99.90
39019;DHT22;24786;51.984;5.872;2023-01-29T12:34:49;4.20;99.90
39019;DHT22;24786;51.984;5.872;2023-01-29T12:39:57;4.10;99.90
39019;DHT22;24786;51.984;5.872;2023-01-29T12:42:23;4.20;99.90
39019;DHT22;24786;51.984;5.872;2023-01-29T12:44:56;4.20;99.90
39019;DHT22;24786;51.984;5.872;2023-01-29T12:47:35;4.20;99.90
39019;DHT22;24786;51.984;5.872;2023-01-29T12:50:13;4.20;99.90
39019;DHT22;24786;51.984;5.872;2023-01-29T12:55:22;4.20;99.90
39019;DHT22;24786;51.984;5.872;2023-01-29T12:58:00;4.20;99.90
39019;DHT22;24786;51.984;5.872;2023-01-29T13:00:47;4.20;99.90
39019;DHT22;24786;51.984;5.872;2023-01-29T13:03:33;4.20;99.90
39019;DHT22;24786;51.984;5.872;2023-01-29T13:06:11;4.20;99.90
39019;DHT22;24786;51.984;5.872;2023-01-29T13:08:52;4.30;99.90
39019;DHT22;24786;51.984;5.872;2023-01-29T13:11:34;4.30;99.90
39019;DHT22;24786;51.984;5.872;2023-01-29T13:14:23;4.30;99.90
39019;DHT22;24786;51.984;5.872;2023-01-29T13:16:52;4.30;99.90
39019;DHT22;24786;51.984;5.872;2023-01-29T13:19:28;4.30;99.90
39019;DHT22;24786;51.984;5.872;2023-01-29T13:21:58;4.30;99.90
39019;DHT22;24786;51.984;5.872;2023-01-29T13:24:30;4.20;99.90
39019;DHT22;24786;51.984;5.872;2023-01-29T13:26:57;4.20;99.90
39019;DHT22;24786;51.984;5.872;2023-01-29T13:29:30;4.20;99.90
39019;DHT22;24786;51.984;5.872;2023-01-29T13:31:59;4.30;99.90
39019;DHT22;24786;51.984;5.872;2023-01-29T13:34:34;4.20;99.90
39019;DHT22;24786;51.984;5.872;2023-01-29T13:37:08;4.10;99.90
39019;DHT22;24786;51.984;5.872;2023-01-29T13:39:36;4.20;99.90
39019;DHT22;24786;51.984;5.872;2023-01-29T13:42:37;4.10;99.90
39019;DHT22;24786;51.984;5.872;2023-01-29T13:45:05;4.20;99.90
39019;DHT22;24786;51.984;5.872;2023-01-29T13:47:36;4.20;99.90
39019;DHT22;24786;51.984;5.872;2023-01-29T13:50:22;4.10;99.90
39019;DHT22;24786;51.984;5.872;2023-01-29T13:55:28;4.20;99.90
39019;DHT22;24786;51.984;5.872;2023-01-29T13:58:00;4.20;99.90
39019;DHT22;24786;51.984;5.872;2023-01-29T14:07:56;4.20;99.90
39019;DHT22;24786;51.984;5.872;2023-01-29T14:10:26;4.20;99.90
39019;DHT22;24786;51.984;5.872;2023-01-29T14:12:53;4.20;99.90
39019;DHT22;24786;51.984;5.872;2023-01-29T14:20:33;4.40;99.90
39019;DHT22;24786;51.984;5.872;2023-01-29T14:23:00;4.40;99.90
39019;DHT22;24786;51.984;5.872;2023-01-29T14:25:33;4.30;99.90
39019;DHT22;24786;51.984;5.872;2023-01-29T14:28:00;4.30;99.90
39019;DHT22;24786;51.984;5.872;2023-01-29T14:30:31;4.30;99.90
39019;DHT22;24786;51.984;5.872;2023-01-29T14:32:57;4.30;99.90
39019;DHT22;24786;51.984;5.872;2023-01-29T14:35:27;4.30;99.90
39019;DHT22;24786;51.984;5.872;2023-01-29T14:37:58;4.30;99.90
39019;DHT22;24786;51.984;5.872;2023-01-29T14:40:27;4.40;99.90
39019;DHT22;24786;51.984;5.872;2023-01-29T14:43:13;4.20;99.90
39019;DHT22;24786;51.984;5.872;2023-01-29T14:45:44;4.20;99.90
39019;DHT22;24786;51.984;5.872;2023-01-29T14:53:21;4.20;99.90
39019;DHT22;24786;51.984;5.872;2023-01-29T14:56:03;4.20;99.90
39019;DHT22;24786;51.984;5.872;2023-01-29T14:58:41;4.20;99.90
39019;DHT22;24786;51.984;5.872;2023-01-29T15:01:18;4.20;99.90
39019;DHT22;24786;51.984;5.872;2023-01-29T15:03:58;4.20;99.90
39019;DHT22;24786;51.984;5.872;2023-01-29T15:07:34;4.20;99.90
39019;DHT22;24786;51.984;5.872;2023-01-29T15:09:59;4.20;99.90
39019;DHT22;24786;51.984;5.872;2023-01-29T15:17:57;4.20;99.90
39019;DHT22;24786;51.984;5.872;2023-01-29T15:20:38;4.10;99.90
39019;DHT22;24786;51.984;5.872;2023-01-29T15:23:26;4.10;99.90
39019;DHT22;24786;51.984;5.872;2023-01-29T15:25:55;4.10;99.90
39019;DHT22;24786;51.984;5.872;2023-01-29T15:28:21;4.20;99.90
39019;DHT22;24786;51.984;5.872;2023-01-29T15:30:55;4.10;99.90
39019;DHT22;24786;51.984;5.872;2023-01-29T15:33:21;4.10;99.90
39019;DHT22;24786;51.984;5.872;2023-01-29T15:35:47;4.10;99.90
39019;DHT22;24786;51.984;5.872;2023-01-29T15:38:21;4.10;99.90
39019;DHT22;24786;51.984;5.872;2023-01-29T15:41:19;4.10;99.90
39019;DHT22;24786;51.984;5.872;2023-01-29T15:43:47;4.10;99.90
39019;DHT22;24786;51.984;5.872;2023-01-29T15:46:33;4.10;99.90
39019;DHT22;24786;51.984;5.872;2023-01-29T15:49:07;4.10;99.90
39019;DHT22;24786;51.984;5.872;2023-01-29T15:51:33;4.10;99.90
39019;DHT22;24786;51.984;5.872;2023-01-29T15:54:02;4.10;99.90
39019;DHT22;24786;51.984;5.872;2023-01-29T15:56:39;4.10;99.90
39019;DHT22;24786;51.984;5.872;2023-01-29T15:59:07;4.10;99.90
39019;DHT22;24786;51.984;5.872;2023-01-29T16:01:37;4.10;99.90
39019;DHT22;24786;51.984;5.872;2023-01-29T16:04:03;4.10;99.90
39019;DHT22;24786;51.984;5.872;2023-01-29T16:06:39;4.10;99.90
39019;DHT22;24786;51.984;5.872;2023-01-29T16:09:06;4.10;99.90
39019;DHT22;24786;51.984;5.872;2023-01-29T16:11:33;4.00;99.90
39019;DHT22;24786;51.984;5.872;2023-01-29T16:14:00;4.00;99.90
39019;DHT22;24786;51.984;5.872;2023-01-29T16:16:27;4.00;99.90
39019;DHT22;24786;51.984;5.872;2023-01-29T16:18:53;4.00;99.90
39019;DHT22;24786;51.984;5.872;2023-01-29T16:21:36;4.00;99.90
39019;DHT22;24786;51.984;5.872;2023-01-29T16:24:09;4.00;99.90
39019;DHT22;24786;51.984;5.872;2023-01-29T16:26:44;4.00;99.90
39019;DHT22;24786;51.984;5.872;2023-01-29T16:29:15;4.00;99.90
39019;DHT22;24786;51.984;5.872;2023-01-29T16:31:43;4.00;99.90
39019;DHT22;24786;51.984;5.872;2023-01-29T16:36:47;4.00;99.90
39019;DHT22;24786;51.984;5.872;2023-01-29T16:39:20;4.00;99.90
39019;DHT22;24786;51.984;5.872;2023-01-29T16:42:18;4.00;99.90
39019;DHT22;24786;51.984;5.872;2023-01-29T16:44:51;4.00;99.90
39019;DHT22;24786;51.984;5.872;2023-01-29T16:47:36;4.00;99.90
39019;DHT22;24786;51.984;5.872;2023-01-29T16:53:01;4.00;99.90
39019;DHT22;24786;51.984;5.872;2023-01-29T16:55:34;4.00;99.90
39019;DHT22;24786;51.984;5.872;2023-01-29T16:58:12;3.90;99.90
39019;DHT22;24786;51.984;5.872;2023-01-29T17:00:44;4.00;99.90
39019;DHT22;24786;51.984;5.872;2023-01-29T17:03:11;3.90;99.90
39019;DHT22;24786;51.984;5.872;2023-01-29T17:05:37;3.90;99.90
39019;DHT22;24786;51.984;5.872;2023-01-29T17:08:03;3.90;99.90
39019;DHT22;24786;51.984;5.872;2023-01-29T17:10:31;3.90;99.90
39019;DHT22;24786;51.984;5.872;2023-01-29T17:13:02;3.90;99.90
39019;DHT22;24786;51.984;5.872;2023-01-29T17:18:26;3.80;99.90
39019;DHT22;24786;51.984;5.872;2023-01-29T17:20:52;3.80;99.90
39019;DHT22;24786;51.984;5.872;2023-01-29T17:23:18;3.70;99.90
39019;DHT22;24786;51.984;5.872;2023-01-29T17:25:45;3.70;99.90
39019;DHT22;24786;51.984;5.872;2023-01-29T17:28:12;3.70;99.90
39019;DHT22;24786;51.984;5.872;2023-01-29T17:30:38;3.70;99.90
39019;DHT22;24786;51.984;5.872;2023-01-29T17:33:15;3.70;99.90
39019;DHT22;24786;51.984;5.872;2023-01-29T17:35:43;3.70;99.90
39019;DHT22;24786;51.984;5.872;2023-01-29T17:38:13;3.70;99.90
39019;DHT22;24786;51.984;5.872;2023-01-29T17:43:10;3.70;99.90
39019;DHT22;24786;51.984;5.872;2023-01-29T17:45:39;3.70;99.90
39019;DHT22;24786;51.984;5.872;2023-01-29T17:50:37;3.60;99.90
39019;DHT22;24786;51.984;5.872;2023-01-29T17:53:04;3.70;99.90
39019;DHT22;24786;51.984;5.872;2023-01-29T17:55:29;3.70;99.90
39019;DHT22;24786;51.984;5.872;2023-01-29T17:57:55;3.70;99.90
39019;DHT22;24786;51.984;5.872;2023-01-29T18:00:22;3.60;99.90
39019;DHT22;24786;51.984;5.872;2023-01-29T18:02:48;3.60;99.90
39019;DHT22;24786;51.984;5.872;2023-01-29T18:05:15;3.70;99.90
39019;DHT22;24786;51.984;5.872;2023-01-29T18:07:43;3.70;99.90
39019;DHT22;24786;51.984;5.872;2023-01-29T18:10:13;3.70;99.90
39019;DHT22;24786;51.984;5.872;2023-01-29T18:12:39;3.70;99.90
39019;DHT22;24786;51.984;5.872;2023-01-29T18:15:06;3.70;99.90
39019;DHT22;24786;51.984;5.872;2023-01-29T18:17:32;3.70;99.90
39019;DHT22;24786;51.984;5.872;2023-01-29T18:19:57;3.70;99.90
39019;DHT22;24786;51.984;5.872;2023-01-29T18:22:24;3.70;99.90
39019;DHT22;24786;51.984;5.872;2023-01-29T18:24:49;3.70;99.90
39019;DHT22;24786;51.984;5.872;2023-01-29T18:27:15;3.70;99.90
39019;DHT22;24786;51.984;5.872;2023-01-29T18:29:41;3.70;99.90
39019;DHT22;24786;51.984;5.872;2023-01-29T18:32:06;3.80;99.90
39019;DHT22;24786;51.984;5.872;2023-01-29T18:34:32;3.80;99.90